Time;durP1;ratioP1;P1;durP2;ratioP2;P2;SDS_P1;SDS_P2;PMS_P1;PMS_P2;Temp;Humidity;BMP_temperature;BMP_pressure;BME280_temperature;BME280_humidity;BME280_pressure;Samples;Min_cycle;Max_cycle;Signal;HPM_P1;HPM_P2
2024/02/22 00:02:11;;;;;;;5.77;2.77;;;12.60;1.00;;;;;;5035058;28;20209;-68
2024/02/22 00:04:36;;;;;;;3.43;2.43;;;12.60;1.00;;;;;;5034676;28;20190;-69
2024/02/22 00:07:02;;;;;;;2.40;2.20;;;12.60;1.00;;;;;;5034943;28;20258;-68
2024/02/22 00:09:28;;;;;;;3.13;2.83;;;12.60;1.00;;;;;;5033119;28;20210;-68
2024/02/22 00:11:53;;;;;;;3.43;2.97;;;12.60;1.00;;;;;;5034476;28;20222;-69
2024/02/22 00:14:19;;;;;;;2.70;2.50;;;12.50;1.00;;;;;;5033236;28;20587;-68
2024/02/22 00:16:44;;;;;;;4.70;3.20;;;12.50;1.00;;;;;;5034959;28;20184;-68
2024/02/22 00:19:10;;;;;;;4.70;3.00;;;12.50;1.00;;;;;;5034611;28;20528;-69
2024/02/22 00:21:36;;;;;;;3.33;3.03;;;12.50;1.00;;;;;;5034896;28;20210;-69
2024/02/22 00:24:01;;;;;;;5.20;3.20;;;12.40;1.00;;;;;;5034893;28;20175;-68
2024/02/22 00:26:27;;;;;;;3.27;2.97;;;12.40;1.00;;;;;;5034630;28;20265;-68
2024/02/22 00:28:52;;;;;;;2.63;2.43;;;12.40;1.00;;;;;;5034241;28;20289;-68
2024/02/22 00:31:18;;;;;;;2.87;2.67;;;12.40;1.00;;;;;;5034554;28;20195;-68
2024/02/22 00:33:45;;;;;;;3.63;2.70;;;12.40;1.00;;;;;;5034411;28;20293;-68
2024/02/22 00:36:11;;;;;;;4.33;2.80;;;12.30;1.00;;;;;;5034156;28;20168;-69
2024/02/22 00:38:37;;;;;;;3.30;3.03;;;12.30;1.00;;;;;;5033982;28;20803;-68
2024/02/22 00:41:03;;;;;;;4.13;3.03;;;12.30;1.00;;;;;;5033668;28;20203;-68
2024/02/22 00:43:28;;;;;;;2.70;2.50;;;12.30;1.00;;;;;;5034098;28;20470;-68
2024/02/22 00:45:54;;;;;;;3.77;2.40;;;12.20;1.00;;;;;;5033736;28;20203;-68
2024/02/22 00:48:20;;;;;;;4.90;3.20;;;12.20;1.00;;;;;;5033887;28;20195;-69
2024/02/22 00:50:46;;;;;;;2.53;2.30;;;12.10;1.00;;;;;;5033591;28;20424;-69
2024/02/22 00:53:11;;;;;;;2.63;2.43;;;12.10;1.00;;;;;;5034146;28;20202;-69
2024/02/22 00:55:37;;;;;;;3.57;2.60;;;12.10;1.00;;;;;;5033948;28;20266;-69
2024/02/22 00:58:03;;;;;;;2.33;2.13;;;12.10;1.00;;;;;;5033902;28;20183;-69
2024/02/22 01:00:28;;;;;;;2.97;2.60;;;12.10;1.00;;;;;;5033691;28;20179;-69
2024/02/22 01:02:54;;;;;;;3.80;2.00;;;12.10;1.00;;;;;;5034385;28;20267;-69
2024/02/22 01:05:20;;;;;;;2.63;2.20;;;12.00;1.00;;;;;;5034026;28;20181;-69
2024/02/22 01:07:45;;;;;;;2.50;2.30;;;11.90;1.00;;;;;;5033704;28;20774;-68
2024/02/22 01:10:11;;;;;;;2.83;2.20;;;11.90;1.00;;;;;;5033621;28;20186;-69
2024/02/22 01:12:36;;;;;;;3.27;2.70;;;11.90;1.00;;;;;;5033979;28;20291;-69
2024/02/22 01:15:02;;;;;;;2.70;2.20;;;11.80;1.00;;;;;;5033452;28;20190;-69
2024/02/22 01:17:28;;;;;;;5.17;2.83;;;11.80;1.00;;;;;;5033308;28;20632;-68
2024/02/22 01:19:53;;;;;;;3.27;2.40;;;11.70;1.00;;;;;;5033227;28;20436;-68
2024/02/22 01:22:19;;;;;;;3.07;2.23;;;11.70;1.00;;;;;;5033723;28;20245;-68
2024/02/22 01:24:44;;;;;;;3.17;2.67;;;11.60;1.00;;;;;;5033482;28;20184;-68
2024/02/22 01:27:10;;;;;;;3.60;2.70;;;11.60;1.00;;;;;;5033674;28;20182;-68
2024/02/22 01:29:35;;;;;;;3.30;2.33;;;11.50;1.00;;;;;;5033072;28;20218;-69
2024/02/22 01:32:01;;;;;;;4.57;2.30;;;11.50;1.00;;;;;;5033531;28;20197;-68
2024/02/22 01:34:27;;;;;;;3.40;2.07;;;11.50;1.00;;;;;;5032114;28;20266;-69
2024/02/22 01:36:52;;;;;;;2.83;2.50;;;11.40;1.00;;;;;;5033522;28;20660;-68
2024/02/22 01:39:18;;;;;;;4.37;2.53;;;11.40;1.00;;;;;;5033445;28;20523;-68
2024/02/22 01:41:44;;;;;;;3.30;1.73;;;11.40;1.00;;;;;;5033141;28;20325;-68
2024/02/22 01:44:10;;;;;;;3.70;2.77;;;11.30;1.00;;;;;;5033322;28;20213;-68
2024/02/22 01:46:37;;;;;;;4.43;2.23;;;11.30;1.00;;;;;;5033369;28;20195;-67
2024/02/22 01:49:05;;;;;;;3.93;2.07;;;11.20;1.00;;;;;;5033045;28;20616;-68
2024/02/22 01:51:31;;;;;;;3.43;2.77;;;11.20;1.00;;;;;;5033206;28;20445;-69
2024/02/22 01:53:57;;;;;;;2.50;2.00;;;11.20;1.00;;;;;;5033069;28;20880;-70
2024/02/22 01:56:23;;;;;;;2.40;1.90;;;11.20;1.00;;;;;;5033015;28;20410;-68
2024/02/22 01:58:49;;;;;;;2.80;2.10;;;11.20;1.00;;;;;;5032919;28;20927;-69
2024/02/22 02:01:18;;;;;;;4.23;2.67;;;11.20;1.00;;;;;;5032638;28;20204;-68
2024/02/22 02:03:44;;;;;;;2.10;1.80;;;11.10;1.00;;;;;;5032741;28;20435;-68
2024/02/22 02:06:09;;;;;;;2.23;1.80;;;11.10;1.00;;;;;;5032872;28;20427;-68
2024/02/22 02:08:36;;;;;;;4.37;2.10;;;11.10;1.00;;;;;;5032611;28;20569;-68
2024/02/22 02:11:02;;;;;;;2.77;2.10;;;11.10;1.00;;;;;;5033016;28;20205;-70
2024/02/22 02:13:28;;;;;;;3.30;1.73;;;11.10;1.00;;;;;;5033652;28;20423;-70
2024/02/22 02:15:53;;;;;;;2.53;1.83;;;11.10;1.00;;;;;;5033558;28;20787;-70
2024/02/22 02:18:19;;;;;;;3.17;2.17;;;11.00;1.00;;;;;;5033716;28;20191;-70
2024/02/22 02:20:55;;;;;;;3.23;2.23;;;11.00;1.00;;;;;;5033648;28;20542;-70
2024/02/22 02:23:55;;;;;;;2.40;1.90;;;11.00;1.00;;;;;;5033690;28;20202;-69
2024/02/22 02:26:20;;;;;;;3.70;2.13;;;11.00;1.00;;;;;;5033932;28;20418;-71
2024/02/22 02:28:46;;;;;;;2.63;1.77;;;10.90;1.00;;;;;;5036517;28;20462;-70
2024/02/22 02:31:11;;;;;;;3.50;1.60;;;10.90;1.00;;;;;;5036051;28;20226;-71
2024/02/22 02:33:37;;;;;;;2.30;1.37;;;10.90;1.00;;;;;;5036178;28;20191;-69
2024/02/22 02:36:03;;;;;;;2.40;1.70;;;10.80;1.00;;;;;;5036116;28;20659;-69
2024/02/22 02:38:28;;;;;;;4.73;1.87;;;10.80;1.00;;;;;;5036951;28;20418;-69
2024/02/22 02:40:54;;;;;;;3.33;1.87;;;10.80;1.00;;;;;;5036573;28;20290;-69
2024/02/22 02:43:19;;;;;;;2.80;1.97;;;10.80;1.00;;;;;;5037481;28;20176;-70
2024/02/22 02:45:45;;;;;;;2.37;1.90;;;10.80;1.00;;;;;;5038093;28;20184;-70
2024/02/22 02:48:11;;;;;;;2.30;1.60;;;10.70;1.00;;;;;;5038010;28;20214;-70
2024/02/22 02:50:36;;;;;;;2.17;1.47;;;10.70;1.00;;;;;;5037811;28;20171;-71
2024/02/22 02:53:02;;;;;;;3.03;1.53;;;10.70;1.00;;;;;;5037831;28;20520;-70
2024/02/22 02:55:27;;;;;;;2.17;1.07;;;10.70;1.00;;;;;;5037936;28;20661;-69
2024/02/22 02:57:54;;;;;;;2.30;1.40;;;10.70;1.00;;;;;;5037574;28;20171;-73
2024/02/22 03:00:20;;;;;;;2.60;1.50;;;10.70;1.00;;;;;;5037333;28;20176;-70
2024/02/22 03:02:45;;;;;;;2.40;1.77;;;10.70;1.00;;;;;;5037741;28;20429;-71
2024/02/22 03:05:11;;;;;;;2.33;1.53;;;10.60;1.00;;;;;;5037657;28;20218;-71
2024/02/22 03:07:37;;;;;;;2.13;1.13;;;10.60;1.00;;;;;;5037449;28;20175;-71
2024/02/22 03:10:05;;;;;;;2.63;1.37;;;10.60;1.00;;;;;;5037613;28;20203;-70
2024/02/22 03:12:31;;;;;;;2.27;1.47;;;10.60;1.00;;;;;;5037591;28;20452;-70
2024/02/22 03:14:56;;;;;;;2.33;1.17;;;10.60;1.00;;;;;;5037497;28;20406;-71
2024/02/22 03:17:24;;;;;;;2.57;1.77;;;10.60;1.00;;;;;;5037911;28;20214;-71
2024/02/22 03:19:49;;;;;;;1.80;1.30;;;10.60;1.00;;;;;;5037657;28;20182;-70
2024/02/22 03:22:15;;;;;;;2.00;1.47;;;10.60;1.00;;;;;;5037717;28;20520;-69
2024/02/22 03:24:41;;;;;;;2.37;1.37;;;10.70;1.00;;;;;;5037847;28;20172;-70
2024/02/22 03:27:10;;;;;;;2.33;1.37;;;10.70;1.00;;;;;;5037900;28;20927;-69
2024/02/22 03:29:39;;;;;;;1.93;0.97;;;10.70;1.00;;;;;;5036873;28;20670;-71
2024/02/22 03:32:05;;;;;;;1.60;1.00;;;10.70;1.00;;;;;;5037011;28;20916;-70
2024/02/22 03:34:33;;;;;;;2.00;1.17;;;10.80;1.00;;;;;;5036876;28;20425;-71
2024/02/22 03:36:58;;;;;;;2.10;0.80;;;10.80;1.00;;;;;;5036523;28;20493;-70
2024/02/22 03:39:24;;;;;;;2.40;1.07;;;10.80;1.00;;;;;;5035745;28;20893;-71
2024/02/22 03:41:49;;;;;;;1.60;0.90;;;10.80;1.00;;;;;;5036710;28;20273;-71
2024/02/22 03:44:15;;;;;;;3.27;1.37;;;10.80;1.00;;;;;;5036750;28;20205;-70
2024/02/22 03:46:47;;;;;;;2.30;0.80;;;10.80;1.00;;;;;;5036629;28;20176;-70
2024/02/22 03:49:13;;;;;;;1.70;0.97;;;10.80;1.00;;;;;;5036333;28;20202;-71
2024/02/22 03:51:39;;;;;;;1.60;0.90;;;10.70;1.00;;;;;;5036338;28;20438;-70
2024/02/22 03:54:04;;;;;;;1.70;0.90;;;10.70;1.00;;;;;;5036913;28;20175;-71
2024/02/22 03:56:35;;;;;;;2.03;1.20;;;10.70;1.00;;;;;;5036448;28;20171;-72
2024/02/22 03:59:00;;;;;;;1.60;0.77;;;10.70;1.00;;;;;;5036017;28;20714;-71
2024/02/22 04:01:26;;;;;;;1.40;0.70;;;10.70;1.00;;;;;;5035799;28;20430;-71
2024/02/22 04:03:52;;;;;;;1.50;0.80;;;10.70;1.00;;;;;;5036186;28;20180;-71
2024/02/22 04:06:18;;;;;;;1.80;0.70;;;10.70;1.00;;;;;;5036173;28;20475;-71
2024/02/22 04:08:45;;;;;;;1.57;0.70;;;10.60;1.00;;;;;;5036050;28;20606;-70
2024/02/22 04:11:10;;;;;;;6.03;1.07;;;10.60;1.00;;;;;;5035035;28;20218;-71
2024/02/22 04:13:37;;;;;;;1.97;0.97;;;10.60;1.00;;;;;;5034730;28;20413;-71
2024/02/22 04:16:04;;;;;;;1.80;0.70;;;10.60;1.00;;;;;;5035161;28;20180;-70
2024/02/22 04:18:29;;;;;;;1.70;0.97;;;10.60;1.00;;;;;;5034999;28;20411;-70
2024/02/22 04:20:55;;;;;;;2.00;0.87;;;10.60;1.00;;;;;;5034813;28;20513;-72
2024/02/22 04:23:20;;;;;;;2.40;0.83;;;10.60;1.00;;;;;;5035120;28;20218;-73
2024/02/22 04:25:46;;;;;;;1.77;0.80;;;10.50;1.00;;;;;;5034444;28;20286;-70
2024/02/22 04:28:15;;;;;;;1.50;0.63;;;10.50;1.00;;;;;;5033249;28;20258;-70
2024/02/22 04:30:40;;;;;;;1.80;0.90;;;10.40;1.00;;;;;;5034838;28;20182;-71
2024/02/22 04:33:06;;;;;;;1.63;0.90;;;10.50;1.00;;;;;;5035270;28;20409;-71
2024/02/22 04:35:31;;;;;;;1.50;0.70;;;10.50;1.00;;;;;;5035000;28;20658;-70
2024/02/22 04:37:57;;;;;;;1.80;0.80;;;10.40;1.00;;;;;;5035261;28;20232;-70
2024/02/22 04:40:22;;;;;;;2.30;0.80;;;10.40;1.00;;;;;;5035014;28;20539;-71
2024/02/22 04:42:48;;;;;;;1.97;0.90;;;10.40;1.00;;;;;;5033853;28;20199;-71
2024/02/22 04:45:13;;;;;;;1.50;0.70;;;10.40;1.00;;;;;;5035072;28;20186;-70
2024/02/22 04:47:39;;;;;;;1.33;0.47;;;10.40;1.00;;;;;;5035049;28;20179;-72
2024/02/22 04:50:05;;;;;;;1.60;0.90;;;10.50;1.00;;;;;;5034123;28;20608;-70
2024/02/22 04:52:31;;;;;;;3.10;1.50;;;10.50;1.00;;;;;;5034300;28;20220;-71
2024/02/22 04:54:59;;;;;;;1.83;0.93;;;10.40;1.00;;;;;;5033763;28;20418;-70
2024/02/22 04:57:25;;;;;;;1.60;0.70;;;10.40;1.00;;;;;;5034735;28;20199;-71
2024/02/22 04:59:50;;;;;;;1.80;0.83;;;10.40;1.00;;;;;;5034264;28;20468;-70
2024/02/22 05:02:16;;;;;;;1.60;0.70;;;10.40;1.00;;;;;;5034249;28;20257;-71
2024/02/22 05:04:42;;;;;;;2.30;0.73;;;10.50;1.00;;;;;;5034353;28;20237;-71
2024/02/22 05:07:08;;;;;;;1.67;0.83;;;10.50;1.00;;;;;;5034868;28;20217;-71
2024/02/22 05:09:33;;;;;;;1.50;0.83;;;10.50;1.00;;;;;;5034453;28;20461;-72
2024/02/22 05:11:59;;;;;;;1.63;0.70;;;10.40;1.00;;;;;;5034697;28;20545;-71
2024/02/22 05:14:24;;;;;;;1.90;0.70;;;10.50;1.00;;;;;;5034722;28;20254;-71
2024/02/22 05:16:50;;;;;;;1.83;0.60;;;10.50;1.00;;;;;;5034511;28;20179;-71
2024/02/22 05:19:16;;;;;;;2.03;0.90;;;10.40;1.00;;;;;;5034092;28;20214;-70
2024/02/22 05:21:41;;;;;;;2.70;0.77;;;10.40;1.00;;;;;;5034355;28;20566;-71
2024/02/22 05:24:10;;;;;;;1.37;0.60;;;10.40;1.00;;;;;;5034702;28;20410;-71
2024/02/22 05:26:35;;;;;;;2.33;1.07;;;10.40;1.00;;;;;;5033483;28;20175;-71
2024/02/22 05:29:01;;;;;;;2.00;1.10;;;10.40;1.00;;;;;;5032179;28;20876;-71
2024/02/22 05:31:29;;;;;;;1.73;0.60;;;10.40;1.00;;;;;;5032354;28;20674;-69
2024/02/22 05:33:55;;;;;;;1.60;0.70;;;10.40;1.00;;;;;;5032227;28;20233;-70
2024/02/22 05:36:21;;;;;;;1.73;0.70;;;10.40;1.00;;;;;;5032164;28;20921;-69
2024/02/22 05:38:47;;;;;;;1.40;0.50;;;10.40;1.90;;;;;;5032228;28;20179;-68
2024/02/22 05:41:16;;;;;;;1.80;0.83;;;10.30;1.30;;;;;;5031728;28;20456;-69
2024/02/22 05:43:42;;;;;;;5.00;0.80;;;10.30;2.20;;;;;;5032111;28;20449;-68
2024/02/22 05:46:07;;;;;;;1.50;0.70;;;10.30;2.90;;;;;;5032233;28;20453;-69
2024/02/22 05:48:33;;;;;;;1.40;0.53;;;10.30;2.90;;;;;;5031815;28;20237;-71
2024/02/22 05:50:59;;;;;;;2.60;0.80;;;10.30;3.90;;;;;;5031934;28;20227;-71
2024/02/22 05:53:25;;;;;;;1.40;0.50;;;10.20;5.10;;;;;;5032494;28;20190;-70
2024/02/22 05:55:50;;;;;;;1.40;0.60;;;10.20;4.00;;;;;;5032259;28;20917;-70
2024/02/22 05:58:17;;;;;;;1.87;0.60;;;10.20;3.90;;;;;;5032655;28;20210;-71
2024/02/22 06:00:43;;;;;;;2.10;0.80;;;10.20;3.50;;;;;;5031973;28;20555;-72
2024/02/22 06:03:09;;;;;;;1.50;0.80;;;10.30;5.40;;;;;;5031741;28;20410;-70
2024/02/22 06:05:35;;;;;;;1.70;0.77;;;10.20;4.70;;;;;;5032345;28;20418;-72
2024/02/22 06:08:01;;;;;;;1.90;1.00;;;10.20;5.30;;;;;;5031802;28;20202;-72
2024/02/22 06:10:28;;;;;;;2.27;1.27;;;10.10;5.30;;;;;;5031618;28;20407;-72
2024/02/22 06:12:53;;;;;;;1.73;0.53;;;10.10;6.40;;;;;;5031661;28;20697;-71
2024/02/22 06:15:19;;;;;;;3.87;1.17;;;10.10;4.70;;;;;;5030661;28;20406;-71
2024/02/22 06:17:45;;;;;;;1.70;0.63;;;10.00;5.30;;;;;;5032125;28;20176;-72
2024/02/22 06:20:10;;;;;;;1.50;0.70;;;10.10;4.40;;;;;;5031475;28;20179;-72
2024/02/22 06:22:36;;;;;;;2.53;1.43;;;10.10;5.30;;;;;;5031641;28;20245;-72
2024/02/22 06:25:01;;;;;;;2.43;0.83;;;10.10;4.60;;;;;;5031747;28;20175;-70
2024/02/22 06:27:28;;;;;;;2.53;1.00;;;10.10;4.60;;;;;;5031506;28;20175;-69
2024/02/22 06:29:54;;;;;;;1.80;0.77;;;10.10;6.40;;;;;;5031307;28;20261;-69
2024/02/22 06:32:20;;;;;;;1.53;0.60;;;10.00;5.20;;;;;;5031354;28;20440;-70
2024/02/22 06:34:46;;;;;;;1.70;0.90;;;10.00;6.40;;;;;;5031597;28;20491;-69
2024/02/22 06:37:12;;;;;;;1.90;0.90;;;10.00;6.00;;;;;;5031353;28;20402;-69
2024/02/22 06:39:37;;;;;;;1.87;0.70;;;10.00;6.80;;;;;;5031296;28;20604;-70
2024/02/22 06:42:03;;;;;;;1.97;0.70;;;9.90;7.80;;;;;;5031727;28;20468;-69
2024/02/22 06:44:29;;;;;;;2.10;1.10;;;9.90;8.40;;;;;;5029990;28;20190;-69
2024/02/22 06:46:54;;;;;;;1.50;0.60;;;9.80;9.00;;;;;;5031426;28;20183;-69
2024/02/22 06:49:20;;;;;;;1.80;0.97;;;9.80;8.50;;;;;;5031046;28;20207;-69
2024/02/22 06:51:46;;;;;;;1.70;0.77;;;9.80;8.40;;;;;;5029976;28;20797;-69
2024/02/22 06:54:13;;;;;;;1.97;1.07;;;9.80;8.40;;;;;;5031215;28;20225;-69
2024/02/22 06:56:39;;;;;;;2.00;0.80;;;9.80;8.10;;;;;;5031310;28;20203;-69
2024/02/22 06:59:04;;;;;;;1.90;0.80;;;9.90;7.40;;;;;;5031229;28;20977;-69
2024/02/22 07:01:32;;;;;;;2.10;1.07;;;9.90;8.90;;;;;;5031114;28;20441;-69
2024/02/22 07:03:57;;;;;;;1.60;0.80;;;9.90;8.30;;;;;;5031225;28;20168;-69
2024/02/22 07:06:23;;;;;;;2.17;0.90;;;9.90;7.50;;;;;;5031178;28;20422;-69
2024/02/22 07:08:48;;;;;;;2.57;1.17;;;9.90;6.90;;;;;;5031120;28;20618;-69
2024/02/22 07:11:14;;;;;;;1.93;0.93;;;9.90;7.30;;;;;;5030681;28;20257;-70
2024/02/22 07:13:40;;;;;;;4.43;1.13;;;10.00;8.10;;;;;;5031575;28;20168;-69
2024/02/22 07:16:07;;;;;;;1.97;0.80;;;9.90;8.40;;;;;;5034881;28;20437;-72
2024/02/22 07:18:32;;;;;;;1.90;1.00;;;9.90;7.50;;;;;;5034800;28;20414;-71
2024/02/22 07:20:58;;;;;;;2.20;1.00;;;9.90;8.30;;;;;;5034274;28;20507;-70
2024/02/22 07:23:24;;;;;;;1.60;0.63;;;9.90;8.30;;;;;;5034535;28;20202;-70
2024/02/22 07:25:49;;;;;;;1.50;0.60;;;9.90;7.10;;;;;;5033424;28;20190;-71
2024/02/22 07:28:15;;;;;;;1.90;0.73;;;9.90;7.80;;;;;;5030081;28;20273;-71
2024/02/22 07:30:41;;;;;;;1.50;0.70;;;9.90;8.90;;;;;;5030006;28;20183;-70
2024/02/22 07:33:09;;;;;;;4.70;0.90;;;9.90;9.20;;;;;;5031205;28;20207;-71
2024/02/22 07:35:35;;;;;;;1.57;0.57;;;9.90;9.10;;;;;;5030013;28;20433;-71
2024/02/22 07:38:01;;;;;;;1.53;0.50;;;9.90;7.90;;;;;;5030084;28;20487;-71
2024/02/22 07:40:26;;;;;;;1.60;0.50;;;10.00;7.90;;;;;;5030848;28;20512;-71
2024/02/22 07:42:52;;;;;;;1.40;0.50;;;10.00;7.60;;;;;;5030023;28;20199;-70
2024/02/22 07:45:18;;;;;;;1.37;0.40;;;10.00;8.60;;;;;;5030032;28;20179;-68
2024/02/22 07:47:44;;;;;;;1.37;0.50;;;10.00;8.40;;;;;;5030483;28;20171;-68
2024/02/22 07:50:13;;;;;;;1.60;0.60;;;10.00;8.90;;;;;;5029665;28;20468;-69
2024/02/22 07:52:40;;;;;;;1.93;0.83;;;10.10;9.80;;;;;;5029719;28;20301;-68
2024/02/22 07:55:06;;;;;;;2.47;0.80;;;10.20;8.50;;;;;;5029128;28;20796;-68
2024/02/22 07:57:32;;;;;;;3.00;1.13;;;10.20;7.90;;;;;;5029879;28;20422;-69
2024/02/22 07:59:57;;;;;;;3.00;1.00;;;10.20;8.30;;;;;;5033433;28;20421;-67
2024/02/22 08:02:23;;;;;;;1.90;0.87;;;10.20;8.20;;;;;;5033495;28;20199;-69
2024/02/22 08:04:50;;;;;;;2.37;1.23;;;10.20;7.80;;;;;;5033632;28;20237;-68
2024/02/22 08:07:16;;;;;;;2.33;0.90;;;10.20;7.20;;;;;;5033718;28;20414;-68
2024/02/22 08:09:42;;;;;;;2.90;0.90;;;10.30;7.70;;;;;;5033757;28;20908;-68
2024/02/22 08:12:09;;;;;;;1.90;0.67;;;10.30;7.00;;;;;;5033843;28;20488;-69
2024/02/22 08:14:35;;;;;;;1.67;0.60;;;10.30;6.30;;;;;;5033549;28;20631;-69
2024/02/22 08:17:00;;;;;;;1.80;0.70;;;10.30;6.70;;;;;;5033457;28;20424;-69
2024/02/22 08:19:26;;;;;;;1.40;0.60;;;10.30;6.80;;;;;;5033176;28;20187;-69
2024/02/22 08:21:51;;;;;;;3.67;0.80;;;10.30;6.70;;;;;;5033589;28;20231;-69
2024/02/22 08:24:17;;;;;;;4.47;1.70;;;10.40;5.90;;;;;;5033476;28;20176;-69
2024/02/22 08:26:43;;;;;;;3.50;0.83;;;10.40;5.70;;;;;;5033369;28;20645;-69
2024/02/22 08:29:09;;;;;;;2.27;0.67;;;10.40;5.50;;;;;;5033098;28;20210;-69
2024/02/22 08:31:35;;;;;;;1.93;0.60;;;10.50;5.60;;;;;;5033442;28;20612;-69
2024/02/22 08:34:00;;;;;;;2.23;0.80;;;10.50;4.90;;;;;;5033514;28;20473;-69
2024/02/22 08:36:26;;;;;;;3.33;0.90;;;10.60;5.20;;;;;;5033288;28;20172;-70
2024/02/22 08:38:51;;;;;;;1.60;0.60;;;10.60;4.20;;;;;;5033247;28;20175;-69
2024/02/22 08:41:17;;;;;;;2.13;0.70;;;10.70;5.10;;;;;;5037859;28;20203;-68
2024/02/22 08:43:43;;;;;;;1.47;0.50;;;10.80;3.30;;;;;;5033328;28;20191;-68
2024/02/22 08:46:08;;;;;;;1.40;0.50;;;10.90;3.80;;;;;;5033248;28;20187;-67
2024/02/22 08:48:35;;;;;;;1.60;0.50;;;11.00;4.20;;;;;;5033036;28;20199;-68
2024/02/22 08:51:01;;;;;;;2.17;1.00;;;11.00;2.90;;;;;;5033017;28;20198;-69
2024/02/22 08:53:27;;;;;;;1.80;0.60;;;11.00;2.50;;;;;;5032951;28;20898;-70
2024/02/22 08:55:52;;;;;;;1.63;0.70;;;11.00;1.40;;;;;;5032814;28;20211;-68
2024/02/22 08:58:19;;;;;;;1.43;0.60;;;11.00;2.20;;;;;;5032968;28;20308;-68
2024/02/22 09:00:44;;;;;;;1.50;0.50;;;11.00;1.50;;;;;;5032459;28;20505;-69
2024/02/22 09:03:10;;;;;;;1.40;0.50;;;11.00;3.00;;;;;;5032773;28;20234;-69
2024/02/22 09:05:41;;;;;;;1.43;0.60;;;11.10;1.90;;;;;;5032703;28;20186;-70
2024/02/22 09:08:07;;;;;;;1.70;0.70;;;11.10;2.40;;;;;;5031390;28;20210;-69
2024/02/22 09:10:32;;;;;;;1.40;0.50;;;11.20;1.50;;;;;;5032297;28;20414;-70
2024/02/22 09:12:58;;;;;;;1.70;0.70;;;11.20;1.00;;;;;;5032569;28;20434;-71
2024/02/22 09:15:23;;;;;;;3.13;1.40;;;11.30;1.60;;;;;;5032443;28;20496;-69
2024/02/22 09:17:49;;;;;;;2.00;0.97;;;11.30;1.00;;;;;;5032672;28;20179;-70
2024/02/22 09:20:15;;;;;;;1.50;0.70;;;11.30;1.00;;;;;;5032653;28;20191;-69
2024/02/22 09:22:41;;;;;;;1.70;0.83;;;11.40;1.10;;;;;;5032528;28;20196;-72
2024/02/22 09:25:08;;;;;;;3.33;0.90;;;11.30;1.00;;;;;;5032529;28;20422;-68
2024/02/22 09:27:34;;;;;;;1.40;0.50;;;11.30;1.00;;;;;;5032400;28;20241;-69
2024/02/22 09:30:03;;;;;;;1.37;0.40;;;11.30;1.00;;;;;;5031901;28;20969;-69
2024/02/22 09:32:29;;;;;;;1.40;0.60;;;11.40;1.00;;;;;;5032123;28;20442;-70
2024/02/22 09:34:55;;;;;;;1.37;0.40;;;11.20;1.00;;;;;;5032220;28;20444;-70
2024/02/22 09:37:21;;;;;;;1.50;0.50;;;11.20;1.00;;;;;;5032019;28;20505;-70
2024/02/22 09:39:49;;;;;;;2.57;0.70;;;11.10;1.00;;;;;;5032820;28;20553;-69
2024/02/22 09:42:15;;;;;;;1.93;0.50;;;11.10;1.40;;;;;;5032992;28;20969;-69
2024/02/22 09:44:41;;;;;;;2.43;0.60;;;11.10;1.00;;;;;;5030954;28;20430;-68
2024/02/22 09:47:08;;;;;;;1.40;0.50;;;11.20;1.40;;;;;;5032026;28;20425;-68
2024/02/22 09:49:34;;;;;;;1.40;0.50;;;11.30;1.00;;;;;;5031730;28;20964;-68
2024/02/22 09:52:00;;;;;;;2.03;0.77;;;11.30;1.00;;;;;;5032093;28;20429;-68
2024/02/22 09:54:25;;;;;;;1.80;1.03;;;11.40;1.00;;;;;;5031844;28;20414;-68
2024/02/22 09:56:51;;;;;;;1.97;0.80;;;11.60;1.00;;;;;;5031693;28;20454;-68
2024/02/22 09:59:18;;;;;;;1.40;0.50;;;11.70;1.00;;;;;;5031375;28;20179;-68
2024/02/22 10:01:44;;;;;;;1.80;0.60;;;11.90;1.00;;;;;;5031815;28;20202;-68
2024/02/22 10:04:23;;;;;;;1.50;0.50;;;12.00;1.00;;;;;;5031896;28;20531;-68
2024/02/22 10:06:49;;;;;;;1.50;0.60;;;11.90;1.00;;;;;;5032374;28;20449;-75
2024/02/22 10:09:16;;;;;;;2.13;0.77;;;11.90;1.00;;;;;;5031688;28;20462;-68
2024/02/22 10:11:46;;;;;;;1.60;0.60;;;12.10;1.00;;;;;;5031481;28;20463;-68
2024/02/22 10:14:15;;;;;;;1.60;0.70;;;12.20;1.00;;;;;;5031823;28;20418;-69
2024/02/22 10:16:42;;;;;;;1.40;0.50;;;12.30;1.00;;;;;;5031901;28;20414;-68
2024/02/22 10:19:12;;;;;;;1.40;0.50;;;12.40;1.00;;;;;;5031820;28;20552;-71
2024/02/22 10:21:38;;;;;;;1.90;0.80;;;12.40;1.00;;;;;;5031539;28;20439;-71
2024/02/22 10:24:04;;;;;;;1.50;0.50;;;12.60;1.00;;;;;;5032010;28;20418;-70
2024/02/22 10:26:29;;;;;;;1.30;0.40;;;12.60;1.00;;;;;;5031801;28;20479;-70
2024/02/22 10:29:09;;;;;;;1.40;0.50;;;12.60;1.00;;;;;;5031955;28;20465;-71
2024/02/22 10:31:40;;;;;;;1.40;0.50;;;12.70;1.00;;;;;;5032082;28;20191;-70
2024/02/22 10:34:06;;;;;;;2.00;0.70;;;12.60;1.00;;;;;;5032035;28;20460;-70
2024/02/22 10:36:32;;;;;;;2.80;0.60;;;12.70;1.00;;;;;;5031981;28;20417;-69
2024/02/22 10:38:58;;;;;;;1.87;0.60;;;12.60;1.00;;;;;;5030180;28;20226;-68
2024/02/22 10:41:25;;;;;;;1.60;0.50;;;12.40;1.00;;;;;;5031288;28;20460;-68
2024/02/22 10:43:52;;;;;;;1.30;0.40;;;12.30;1.00;;;;;;5031333;28;20183;-68
2024/02/22 10:46:18;;;;;;;1.60;0.57;;;12.40;1.00;;;;;;5031309;28;20425;-68
2024/02/22 10:48:51;;;;;;;1.87;0.53;;;12.20;1.00;;;;;;5031750;28;21000;-67
2024/02/22 10:51:19;;;;;;;1.37;0.50;;;12.20;1.00;;;;;;5035244;28;20426;-68
2024/02/22 10:53:51;;;;;;;2.23;0.50;;;12.20;1.00;;;;;;5035589;28;20474;-69
2024/02/22 10:56:25;;;;;;;1.70;0.47;;;12.20;1.00;;;;;;5035194;28;20419;-68
2024/02/22 10:58:56;;;;;;;1.50;0.50;;;12.20;1.00;;;;;;5034933;28;20413;-69
2024/02/22 11:01:22;;;;;;;1.30;0.40;;;12.30;1.00;;;;;;5034969;28;20489;-69
2024/02/22 11:03:48;;;;;;;1.30;0.50;;;12.20;1.00;;;;;;5035074;28;20910;-69
2024/02/22 11:06:14;;;;;;;1.40;0.50;;;12.30;1.00;;;;;;5035361;28;20424;-69
2024/02/22 11:08:55;;;;;;;1.40;0.50;;;12.40;1.00;;;;;;5034903;28;20457;-68
2024/02/22 11:11:39;;;;;;;1.40;0.40;;;12.30;1.00;;;;;;5034796;28;20210;-69
2024/02/22 11:14:06;;;;;;;1.70;0.50;;;12.30;1.00;;;;;;5033529;28;20933;-69
2024/02/22 11:16:33;;;;;;;2.13;0.50;;;12.50;1.00;;;;;;5035059;28;20409;-68
2024/02/22 11:19:09;;;;;;;2.50;0.60;;;12.60;1.00;;;;;;5034563;28;20424;-69
2024/02/22 11:21:41;;;;;;;2.63;0.93;;;12.60;1.00;;;;;;5032791;28;20460;-69
2024/02/22 11:24:10;;;;;;;1.40;0.50;;;12.50;1.00;;;;;;5034515;28;20421;-69
2024/02/22 11:26:36;;;;;;;1.30;0.50;;;12.40;1.00;;;;;;5034548;28;20452;-69
2024/02/22 11:29:03;;;;;;;1.40;0.50;;;12.30;1.00;;;;;;5034461;28;21004;-68
2024/02/22 11:31:29;;;;;;;1.93;0.67;;;12.30;1.00;;;;;;5034187;28;20434;-67
2024/02/22 11:33:59;;;;;;;1.30;0.40;;;12.30;1.00;;;;;;5034725;28;20893;-69
2024/02/22 11:36:26;;;;;;;1.60;0.50;;;12.20;1.00;;;;;;5034532;28;20515;-69
2024/02/22 11:39:06;;;;;;;1.23;0.40;;;12.10;1.00;;;;;;5034153;28;20879;-69
2024/02/22 11:41:32;;;;;;;3.30;0.80;;;12.10;1.00;;;;;;5033037;28;20483;-69
2024/02/22 11:44:02;;;;;;;1.40;0.60;;;12.10;1.00;;;;;;5034163;28;20476;-69
2024/02/22 11:46:28;;;;;;;1.50;0.50;;;12.10;1.00;;;;;;5032828;28;20229;-69
2024/02/22 11:48:54;;;;;;;1.40;0.53;;;12.10;1.00;;;;;;5033880;28;20498;-69
2024/02/22 11:51:23;;;;;;;1.30;0.40;;;12.10;1.00;;;;;;5033843;28;20445;-69
2024/02/22 11:53:56;;;;;;;1.30;0.50;;;12.10;1.00;;;;;;5033830;28;20545;-69
2024/02/22 11:56:24;;;;;;;1.80;0.47;;;12.10;1.00;;;;;;5033866;28;20471;-69
2024/02/22 11:58:50;;;;;;;1.50;0.60;;;12.00;1.00;;;;;;5032895;28;20968;-69
2024/02/22 12:01:16;;;;;;;3.00;0.80;;;12.20;1.00;;;;;;5033318;28;20434;-69
2024/02/22 12:03:44;;;;;;;1.90;0.60;;;12.20;1.00;;;;;;5033812;28;20189;-69
2024/02/22 12:06:11;;;;;;;1.40;0.60;;;12.30;1.00;;;;;;5033775;28;20427;-69
2024/02/22 12:08:37;;;;;;;1.50;0.70;;;12.50;1.00;;;;;;5033581;28;20456;-68
2024/02/22 12:11:04;;;;;;;1.30;0.50;;;12.70;1.00;;;;;;5033276;28;20457;-69
2024/02/22 12:13:30;;;;;;;1.90;0.80;;;12.90;1.00;;;;;;5033845;28;20421;-69
2024/02/22 12:16:10;;;;;;;1.70;0.80;;;13.10;1.00;;;;;;5034086;28;20408;-69
2024/02/22 12:18:36;;;;;;;1.60;0.60;;;13.30;1.00;;;;;;5033952;28;20179;-70
2024/02/22 12:21:11;;;;;;;2.23;0.93;;;13.00;1.00;;;;;;5036068;28;20433;-70
2024/02/22 12:23:37;;;;;;;2.27;0.60;;;13.00;1.00;;;;;;5033804;28;20508;-70
2024/02/22 12:26:08;;;;;;;1.40;0.60;;;12.90;1.00;;;;;;5034544;28;20446;-69
2024/02/22 12:28:37;;;;;;;2.67;0.90;;;12.90;1.00;;;;;;5033792;28;20238;-69
2024/02/22 12:31:03;;;;;;;1.60;0.60;;;12.70;1.00;;;;;;5032405;28;20434;-69
2024/02/22 12:33:31;;;;;;;1.40;0.57;;;12.70;1.00;;;;;;5033904;28;20418;-69
2024/02/22 12:36:01;;;;;;;1.40;0.53;;;12.70;1.00;;;;;;5033747;28;20770;-69
2024/02/22 12:39:04;;;;;;;1.43;0.57;;;12.70;1.00;;;;;;5033943;28;20939;-70
2024/02/22 12:41:29;;;;;;;1.97;0.60;;;12.70;1.00;;;;;;5032429;28;20445;-70
2024/02/22 12:43:57;;;;;;;1.40;0.53;;;12.60;1.00;;;;;;5033607;28;20933;-70
2024/02/22 12:46:22;;;;;;;1.30;0.50;;;12.50;1.00;;;;;;5034018;28;20555;-68
2024/02/22 12:48:48;;;;;;;1.40;0.50;;;12.60;1.00;;;;;;5033468;28;20456;-67
2024/02/22 12:51:18;;;;;;;1.53;0.60;;;12.50;1.00;;;;;;5032088;28;20624;-70
2024/02/22 12:53:46;;;;;;;1.70;0.40;;;12.50;1.00;;;;;;5031976;28;20228;-69
2024/02/22 12:56:12;;;;;;;1.40;0.50;;;12.60;1.00;;;;;;5033583;28;20414;-69